Time;durP1;ratioP1;P1;durP2;ratioP2;P2;SDS_P1;SDS_P2;PMS_P1;PMS_P2;Temp;Humidity;BMP_temperature;BMP_pressure;BME280_temperature;BME280_humidity;BME280_pressure;Samples;Min_cycle;Max_cycle;Signal;HPM_P1;HPM_P2
2022/12/18 00:01:44;;;;;;;73.10;24.40;;;;;;;-11.38;100.00;99975.53;5020614;28;20025;-76
2022/12/18 00:04:20;;;;;;;65.53;24.00;;;;;;;-11.30;100.00;99974.44;5015237;28;20394;-77
2022/12/18 00:06:45;;;;;;;64.47;24.43;;;;;;;-11.51;100.00;99954.06;5031403;28;20055;-76
2022/12/18 00:09:11;;;;;;;63.80;24.02;;;;;;;-11.45;100.00;99966.97;5024457;28;20022;-76
2022/12/18 00:11:36;;;;;;;67.90;23.42;;;;;;;-11.43;100.00;99986.09;5015657;28;20152;-76
2022/12/18 00:14:02;;;;;;;64.77;23.50;;;;;;;-11.56;100.00;99967.22;5003953;28;20068;-76
2022/12/18 00:16:29;;;;;;;74.70;23.52;;;;;;;-11.48;100.00;99974.88;5026750;28;20033;-76
2022/12/18 00:18:59;;;;;;;65.68;21.80;;;;;;;-11.70;100.00;99945.84;5029020;28;20398;-76
2022/12/18 00:21:26;;;;;;;74.43;25.38;;;;;;;-11.49;100.00;99967.97;5036041;28;20017;-76
2022/12/18 00:23:51;;;;;;;67.47;26.65;;;;;;;-11.47;100.00;99958.34;5035800;28;20020;-76
2022/12/18 00:26:23;;;;;;;74.70;26.80;;;;;;;-11.43;100.00;99970.41;5035218;28;20438;-76
2022/12/18 00:28:49;;;;;;;74.20;27.27;;;;;;;-11.45;100.00;99985.25;5007077;28;20025;-76
2022/12/18 00:31:17;;;;;;;79.53;27.53;;;;;;;-11.38;100.00;99979.00;5031636;28;20029;-76
2022/12/18 00:33:43;;;;;;;64.32;25.17;;;;;;;-11.45;100.00;99963.50;5016940;28;20025;-76
2022/12/18 00:36:20;;;;;;;86.82;28.73;;;;;;;-11.52;100.00;99958.44;5016148;28;20026;-76
2022/12/18 00:38:46;;;;;;;80.63;27.43;;;;;;;-11.52;100.00;99953.22;5009469;28;20029;-76
2022/12/18 00:41:13;;;;;;;71.50;26.50;;;;;;;-11.41;100.00;99958.19;5019691;28;20053;-75
2022/12/18 00:43:39;;;;;;;87.23;27.10;;;;;;;-11.44;100.00;99962.63;5030929;28;20061;-76
2022/12/18 00:46:05;;;;;;;79.37;24.37;;;;;;;-11.75;100.00;99942.47;5039184;28;20067;-76
2022/12/18 00:48:30;;;;;;;71.43;24.13;;;;;;;-11.56;100.00;99969.00;5016355;28;20025;-76
2022/12/18 00:50:56;;;;;;;68.93;23.60;;;;;;;-11.73;100.00;99957.19;5032574;28;20336;-76
2022/12/18 00:53:21;;;;;;;70.10;22.37;;;;;;;-11.58;100.00;99961.22;5015169;28;20103;-76
2022/12/18 00:55:47;;;;;;;66.05;22.25;;;;;;;-11.56;100.00;99961.16;5036420;28;20025;-76
2022/12/18 00:58:14;;;;;;;67.15;20.65;;;;;;;-11.55;100.00;99962.88;5018364;28;20025;-76
2022/12/18 01:00:40;;;;;;;59.00;20.15;;;;;;;-11.60;100.00;99923.00;5018956;28;20035;-76
2022/12/18 01:03:06;;;;;;;59.28;19.83;;;;;;;-11.50;100.00;99966.22;5032594;28;20029;-76
2022/12/18 01:05:32;;;;;;;57.30;19.17;;;;;;;-11.57;100.00;99964.69;5021864;28;20017;-76
2022/12/18 01:07:58;;;;;;;59.47;19.43;;;;;;;-11.69;100.00;99971.03;5034828;28;20103;-76
2022/12/18 01:10:24;;;;;;;58.83;19.17;;;;;;;-11.65;100.00;99988.34;5031413;28;20025;-76
2022/12/18 01:12:51;;;;;;;57.25;20.45;;;;;;;-11.97;100.00;99939.50;5016762;28;20479;-76
2022/12/18 01:15:17;;;;;;;57.92;19.40;;;;;;;-11.72;100.00;99961.53;5032927;28;20025;-75
2022/12/18 01:17:43;;;;;;;55.45;20.85;;;;;;;-11.69;100.00;99969.28;5032104;28;20061;-76
2022/12/18 01:20:11;;;;;;;53.20;18.52;;;;;;;-11.79;100.00;99954.75;5024161;28;20075;-76
2022/12/18 01:22:36;;;;;;;42.22;16.77;;;;;;;-11.72;100.00;99966.72;5013791;28;20093;-76
2022/12/18 01:25:04;;;;;;;55.15;18.88;;;;;;;-11.54;100.00;99969.81;5027403;28;20125;-76
2022/12/18 01:27:29;;;;;;;50.53;18.60;;;;;;;-11.58;100.00;99997.75;5032499;28;20116;-76
2022/12/18 01:29:54;;;;;;;50.95;19.05;;;;;;;-11.75;100.00;99979.00;5012140;28;20127;-76
2022/12/18 01:32:20;;;;;;;56.58;18.70;;;;;;;-11.57;100.00;99990.78;5021118;28;20029;-76
2022/12/18 01:34:45;;;;;;;54.17;19.30;;;;;;;-11.83;100.00;99962.66;5060605;22;20109;-78
2022/12/18 01:37:11;;;;;;;50.40;17.57;;;;;;;-11.62;100.00;100009.16;4992373;28;20045;-78
2022/12/18 01:39:36;;;;;;;53.73;19.10;;;;;;;-11.62;100.00;100005.69;4980148;28;20046;-77
2022/12/18 01:42:12;;;;;;;56.70;19.70;;;;;;;-11.67;100.00;99969.25;4974408;28;20201;-77
2022/12/18 01:45:05;;;;;;;65.05;21.05;;;;;;;-11.64;100.00;100004.88;4993735;28;20062;-77
2022/12/18 01:47:45;;;;;;;51.73;20.07;;;;;;;-11.73;100.00;99980.69;4992773;28;20035;-76
2022/12/18 01:50:15;;;;;;;56.37;20.47;;;;;;;-11.82;100.00;99980.88;4994525;28;20080;-78
2022/12/18 01:52:43;;;;;;;55.70;20.27;;;;;;;-11.82;100.00;99988.72;4974948;28;20034;-77
2022/12/18 01:55:10;;;;;;;57.90;21.87;;;;;;;-11.83;100.00;99992.22;4997086;28;21266;-76
2022/12/18 01:57:37;;;;;;;50.03;19.20;;;;;;;-11.86;100.00;100000.16;4994220;28;20030;-77
2022/12/18 02:00:09;;;;;;;56.30;20.27;;;;;;;-11.90;100.00;99993.28;4978044;28;20026;-77
2022/12/18 02:02:35;;;;;;;51.93;21.10;;;;;;;-11.95;100.00;99984.69;4995331;28;20121;-77
2022/12/18 02:05:01;;;;;;;59.97;19.70;;;;;;;-12.09;100.00;99976.31;4975534;28;20455;-77
2022/12/18 02:07:39;;;;;;;42.83;17.00;;;;;;;-11.89;100.00;99984.59;4998009;28;20033;-77
2022/12/18 02:10:19;;;;;;;49.83;15.35;;;;;;;-11.87;100.00;99981.91;4995656;28;20030;-76
2022/12/18 02:13:10;;;;;;;50.90;18.37;;;;;;;-11.90;100.00;99990.66;4977737;28;20030;-76
2022/12/18 02:15:52;;;;;;;44.47;16.97;;;;;;;-11.89;100.00;100000.25;4976699;28;20034;-76
2022/12/18 02:18:23;;;;;;;49.57;18.20;;;;;;;-11.78;100.00;100002.56;4989412;28;20034;-77
2022/12/18 02:21:28;;;;;;;58.57;18.33;;;;;;;-11.85;100.00;100003.59;4994841;28;20053;-76
2022/12/18 02:24:07;;;;;;;51.70;18.10;;;;;;;-11.93;100.00;100006.41;4956839;28;20034;-77
2022/12/18 02:26:58;;;;;;;57.13;19.57;;;;;;;-11.92;100.00;100006.38;4984543;28;20037;-77
2022/12/18 02:29:31;;;;;;;52.47;18.07;;;;;;;-11.98;100.00;99992.59;4971196;28;20049;-77
2022/12/18 02:31:59;;;;;;;52.37;17.87;;;;;;;-11.92;100.00;99990.72;4986844;28;20030;-77
2022/12/18 02:34:30;;;;;;;55.95;20.80;;;;;;;-11.96;100.00;99991.66;4984716;28;20026;-76
2022/12/18 02:36:57;;;;;;;49.73;19.47;;;;;;;-11.95;100.00;99997.75;4978471;28;20042;-76
2022/12/18 02:39:25;;;;;;;51.13;20.90;;;;;;;-11.80;100.00;100001.75;4977076;28;20038;-76
2022/12/18 02:41:51;;;;;;;66.18;21.10;;;;;;;-11.86;100.00;100001.91;4992091;28;20054;-76
2022/12/18 02:44:17;;;;;;;53.17;19.80;;;;;;;-12.12;100.00;99965.97;4980902;28;20022;-76
2022/12/18 02:46:48;;;;;;;56.15;18.65;;;;;;;-11.91;100.00;99999.41;4977226;28;20412;-77
2022/12/18 02:49:51;;;;;;;49.20;20.47;;;;;;;-11.91;100.00;100015.06;4993095;28;20109;-77
2022/12/18 02:52:38;;;;;;;51.97;18.70;;;;;;;-11.71;100.00;100025.00;4977452;28;20488;-77
2022/12/18 02:55:18;;;;;;;61.67;19.27;;;;;;;-11.83;100.00;100031.38;4993574;28;20023;-77
2022/12/18 02:57:53;;;;;;;51.13;19.70;;;;;;;-11.87;100.00;100016.69;4992648;28;20026;-77
2022/12/18 03:00:23;;;;;;;58.60;19.93;;;;;;;-11.90;100.00;100023.75;4975599;28;20097;-77
2022/12/18 03:03:13;;;;;;;53.63;19.90;;;;;;;-11.87;100.00;100014.09;4977554;28;20022;-77
2022/12/18 03:06:11;;;;;;;52.08;20.05;;;;;;;-11.90;100.00;100021.97;4976324;28;20022;-76
2022/12/18 03:08:40;;;;;;;50.13;15.20;;;;;;;-11.98;100.00;100016.06;4994274;28;20034;-77
2022/12/18 03:11:09;;;;;;;45.43;17.27;;;;;;;-11.95;100.00;100014.25;4986991;28;20786;-76
2022/12/18 03:13:53;;;;;;;49.83;19.05;;;;;;;-11.97;100.00;100013.44;4986454;28;20031;-76
2022/12/18 03:16:25;;;;;;;52.40;18.80;;;;;;;-11.90;100.00;100011.53;4964973;28;20029;-76
2022/12/18 03:19:00;;;;;;;51.53;19.07;;;;;;;-11.86;100.00;100014.97;4994070;28;20030;-76
2022/12/18 03:21:31;;;;;;;52.73;18.83;;;;;;;-12.00;100.00;100003.03;5006974;28;20394;-76
2022/12/18 03:23:58;;;;;;;52.20;19.20;;;;;;;-11.93;100.00;100011.63;4977155;28;20030;-77
2022/12/18 03:26:27;;;;;;;45.13;17.27;;;;;;;-11.95;100.00;100013.41;4980820;28;20034;-77
2022/12/18 03:28:59;;;;;;;52.87;17.80;;;;;;;-12.15;100.00;100006.00;4995339;28;20033;-77
2022/12/18 03:31:28;;;;;;;54.67;17.80;;;;;;;-12.14;100.00;100025.97;4978731;28;20039;-77
2022/12/18 03:33:57;;;;;;;49.30;16.67;;;;;;;-12.19;100.00;100027.81;4991789;28;20385;-77
2022/12/18 03:36:23;;;;;;;53.77;18.30;;;;;;;-12.27;100.00;100014.06;4983572;28;20022;-77
2022/12/18 03:38:49;;;;;;;45.07;17.50;;;;;;;-12.27;100.00;100009.72;4980714;28;20091;-76
2022/12/18 03:41:29;;;;;;;40.70;17.67;;;;;;;-12.20;100.00;100029.56;4977007;28;20395;-77
2022/12/18 03:44:00;;;;;;;47.77;17.00;;;;;;;-12.25;100.00;100017.50;4995983;28;20030;-76
2022/12/18 03:46:28;;;;;;;50.83;18.60;;;;;;;-12.10;100.00;100027.63;4983416;28;20108;-76
2022/12/18 03:49:20;;;;;;;48.67;18.17;;;;;;;-12.32;100.00;100006.34;4982409;28;20038;-77
2022/12/18 03:51:54;;;;;;;55.87;17.60;;;;;;;-12.32;100.00;100010.69;4978177;28;20458;-76
2022/12/18 03:54:20;;;;;;;53.50;19.53;;;;;;;-12.36;100.00;100015.97;4991443;28;20264;-77
2022/12/18 03:56:52;;;;;;;53.57;19.53;;;;;;;-12.41;100.00;99983.06;4984987;28;20017;-78
2022/12/18 03:59:19;;;;;;;43.70;17.33;;;;;;;-12.19;100.00;100010.41;4995892;28;20069;-77
2022/12/18 04:01:52;;;;;;;54.57;21.23;;;;;;;-12.19;100.00;100005.19;4980543;28;20022;-77
2022/12/18 04:04:18;;;;;;;57.23;19.97;;;;;;;-12.10;100.00;100018.94;5004736;28;20488;-76
2022/12/18 04:06:46;;;;;;;48.87;17.57;;;;;;;-12.14;100.00;100000.75;4980582;28;20620;-77
2022/12/18 04:09:12;;;;;;;47.95;17.33;;;;;;;-11.98;100.00;100019.53;4980036;28;20061;-76
2022/12/18 04:11:37;;;;;;;47.93;17.47;;;;;;;-11.90;100.00;100021.97;4978667;28;20054;-76
2022/12/18 04:14:04;;;;;;;53.73;17.33;;;;;;;-12.00;100.00;100015.25;4997972;28;20030;-77
2022/12/18 04:16:29;;;;;;;53.33;18.17;;;;;;;-12.01;100.00;100021.38;4979254;28;20085;-77
2022/12/18 04:18:54;;;;;;;52.10;19.30;;;;;;;-11.94;100.00;100020.34;4980118;28;20026;-77
2022/12/18 04:21:20;;;;;;;51.97;19.10;;;;;;;-11.71;100.00;100041.56;4980000;28;20026;-77
2022/12/18 04:23:46;;;;;;;53.83;18.27;;;;;;;-11.92;100.00;100002.88;4980648;28;20045;-76
2022/12/18 04:26:11;;;;;;;56.87;18.90;;;;;;;-11.95;100.00;100002.97;4979145;28;20038;-77
2022/12/18 04:28:36;;;;;;;46.10;17.25;;;;;;;-11.85;100.00;100021.84;4978247;28;20088;-78
2022/12/18 04:31:02;;;;;;;61.97;19.17;;;;;;;-12.05;100.00;100019.69;4976592;28;20261;-77
2022/12/18 04:33:27;;;;;;;50.47;17.23;;;;;;;-12.13;100.00;100038.09;4980795;28;20483;-77
2022/12/18 04:35:53;;;;;;;51.57;18.53;;;;;;;-12.05;100.00;100041.44;4980409;28;20077;-77
2022/12/18 04:38:18;;;;;;;57.30;18.13;;;;;;;-12.20;100.00;100015.69;4978845;28;20034;-77
2022/12/18 04:40:43;;;;;;;45.20;16.57;;;;;;;-12.12;100.00;100044.22;4977088;28;20030;-76
2022/12/18 04:43:09;;;;;;;44.03;16.57;;;;;;;-12.09;100.00;100045.00;4982095;28;20029;-76
2022/12/18 04:45:34;;;;;;;59.03;18.40;;;;;;;-12.12;100.00;100033.78;4984045;28;20487;-77
2022/12/18 04:48:00;;;;;;;53.07;18.73;;;;;;;-12.02;100.00;100040.53;4988189;28;20037;-77
2022/12/18 04:50:26;;;;;;;56.27;19.23;;;;;;;-12.17;100.00;100016.47;4991434;28;20550;-77
2022/12/18 04:52:52;;;;;;;63.73;18.63;;;;;;;-12.01;100.00;100037.00;4979734;28;20551;-77
2022/12/18 04:55:18;;;;;;;53.20;18.57;;;;;;;-12.03;100.00;100037.03;4976671;28;20114;-77
2022/12/18 04:57:43;;;;;;;52.67;19.17;;;;;;;-12.28;100.00;100008.00;4976927;28;20066;-76
2022/12/18 05:00:09;;;;;;;49.37;19.57;;;;;;;-12.06;100.00;100031.88;4977166;28;20030;-77
2022/12/18 05:02:35;;;;;;;47.53;18.87;;;;;;;-12.12;100.00;100018.97;4978830;28;20026;-76
2022/12/18 05:05:00;;;;;;;56.20;19.30;;;;;;;-12.24;100.00;100014.84;4996056;28;20496;-76
2022/12/18 05:07:25;;;;;;;46.87;18.23;;;;;;;-12.37;100.00;100002.94;4995196;28;20472;-77
2022/12/18 05:09:51;;;;;;;48.17;16.83;;;;;;;-12.31;100.00;100020.22;4977615;28;20026;-77
2022/12/18 05:12:16;;;;;;;48.13;20.00;;;;;;;-12.55;100.00;99992.88;4997175;28;20116;-77
2022/12/18 05:14:42;;;;;;;47.10;17.10;;;;;;;-12.45;100.00;100012.69;4978278;28;20026;-76
2022/12/18 05:17:07;;;;;;;58.30;18.43;;;;;;;-12.53;100.00;100005.00;4977871;28;20026;-77
2022/12/18 05:19:32;;;;;;;44.93;19.27;;;;;;;-12.58;100.00;100012.91;4977359;28;20487;-77
2022/12/18 05:21:58;;;;;;;50.90;19.17;;;;;;;-12.52;100.00;100014.56;4995304;28;20027;-77
2022/12/18 05:24:23;;;;;;;46.47;18.13;;;;;;;-12.44;100.00;100017.03;5003275;28;20029;-77
2022/12/18 05:26:49;;;;;;;59.13;20.03;;;;;;;-12.39;100.00;100002.13;4977495;28;20069;-77
2022/12/18 05:29:14;;;;;;;52.40;18.67;;;;;;;-12.50;100.00;100006.69;4972527;28;20495;-77
2022/12/18 05:31:39;;;;;;;43.70;16.57;;;;;;;-12.48;100.00;100008.38;4979304;28;20029;-77
2022/12/18 05:34:05;;;;;;;41.30;15.63;;;;;;;-12.30;100.00;100004.56;4994784;28;20161;-76
2022/12/18 05:36:30;;;;;;;53.10;18.80;;;;;;;-12.25;100.00;100001.88;4978069;28;20484;-76
2022/12/18 05:38:56;;;;;;;51.20;18.30;;;;;;;-12.20;100.00;100011.31;4978109;28;20022;-77
2022/12/18 05:41:21;;;;;;;48.57;17.87;;;;;;;-12.22;100.00;100039.16;4979676;28;20026;-77
2022/12/18 05:43:47;;;;;;;42.93;14.60;;;;;;;-12.32;100.00;100037.63;4979653;28;20026;-76
2022/12/18 05:46:14;;;;;;;53.63;16.80;;;;;;;-12.53;100.00;100009.38;4977405;28;20440;-76
2022/12/18 05:48:40;;;;;;;40.57;15.83;;;;;;;-12.43;100.00;100037.84;4990120;28;20076;-76
2022/12/18 05:51:12;;;;;;;53.57;17.70;;;;;;;-12.27;100.00;100051.44;4977569;28;20026;-77
2022/12/18 05:53:37;;;;;;;39.27;16.80;;;;;;;-12.32;100.00;100050.66;4985049;28;20026;-76
2022/12/18 05:56:05;;;;;;;46.73;17.67;;;;;;;-12.44;100.00;100049.16;4976555;28;20084;-76
2022/12/18 05:58:30;;;;;;;42.10;16.47;;;;;;;-12.46;100.00;100058.75;4977367;28;20037;-78
2022/12/18 06:00:56;;;;;;;35.43;14.43;;;;;;;-12.34;100.00;100049.81;4975520;28;20105;-77
2022/12/18 06:03:21;;;;;;;44.87;15.53;;;;;;;-12.25;100.00;100054.03;4982956;28;20037;-77
2022/12/18 06:05:47;;;;;;;39.57;14.67;;;;;;;-12.07;100.00;100044.97;4979207;28;20381;-77
2022/12/18 06:08:13;;;;;;;31.40;13.60;;;;;;;-12.01;100.00;100032.66;4996097;28;20034;-77
2022/12/18 06:10:38;;;;;;;44.80;15.43;;;;;;;-12.04;100.00;100037.09;4977553;28;20033;-77
2022/12/18 06:13:06;;;;;;;44.23;17.17;;;;;;;-12.03;100.00;100017.91;4977595;28;20026;-76
2022/12/18 06:15:32;;;;;;;37.53;15.03;;;;;;;-11.77;100.00;100031.22;4977966;28;20019;-77
2022/12/18 06:17:58;;;;;;;45.63;16.47;;;;;;;-11.78;100.00;100020.84;4974366;28;20014;-76
2022/12/18 06:20:23;;;;;;;43.40;15.60;;;;;;;-11.63;100.00;100064.00;4972423;28;20397;-77
2022/12/18 06:22:49;;;;;;;37.30;15.30;;;;;;;-11.87;100.00;100024.53;4974761;28;20076;-76
2022/12/18 06:25:15;;;;;;;43.77;14.87;;;;;;;-11.49;100.00;100054.13;4977721;28;20022;-76
2022/12/18 06:27:40;;;;;;;44.77;16.93;;;;;;;-11.50;100.00;100055.00;4976237;28;20026;-76
2022/12/18 06:30:06;;;;;;;55.77;17.00;;;;;;;-11.40;100.00;100058.28;4978417;28;20029;-76
2022/12/18 06:32:31;;;;;;;43.27;15.80;;;;;;;-11.48;100.00;100054.06;4995803;28;20026;-77
2022/12/18 06:34:57;;;;;;;50.57;17.80;;;;;;;-11.56;100.00;100049.94;4988503;28;20041;-77
2022/12/18 06:37:25;;;;;;;44.77;16.43;;;;;;;-11.51;100.00;100059.38;4994762;28;20073;-79
2022/12/18 06:39:51;;;;;;;52.60;15.85;;;;;;;-11.57;100.00;100051.69;4979268;28;20077;-77
2022/12/18 06:42:24;;;;;;;45.70;16.70;;;;;;;-11.56;100.00;100050.78;4999131;28;20154;-80
2022/12/18 06:44:49;;;;;;;41.87;15.67;;;;;;;-11.69;100.00;100039.75;5000099;28;20038;-78
2022/12/18 06:47:15;;;;;;;45.73;18.13;;;;;;;-11.60;100.00;100053.53;4975045;28;20032;-79
2022/12/18 06:49:40;;;;;;;44.67;17.33;;;;;;;-11.65;100.00;100051.00;4975480;28;20022;-79
2022/12/18 06:52:05;;;;;;;38.90;15.67;;;;;;;-11.73;100.00;100053.78;4976341;28;20641;-80
2022/12/18 06:54:31;;;;;;;51.37;16.50;;;;;;;-11.59;100.00;100055.22;4992373;28;20089;-79
2022/12/18 06:56:56;;;;;;;44.17;17.23;;;;;;;-11.56;100.00;100047.31;4965777;28;20031;-80
2022/12/18 06:59:21;;;;;;;49.87;15.93;;;;;;;-11.40;100.00;100061.75;4990909;28;20032;-78
2022/12/18 07:01:47;;;;;;;38.27;15.40;;;;;;;-11.29;100.00;100075.44;4985095;28;20046;-78
2022/12/18 07:04:12;;;;;;;46.13;15.63;;;;;;;-11.39;100.00;100067.84;4995698;28;20146;-78
2022/12/18 07:06:38;;;;;;;41.93;15.63;;;;;;;-11.19;100.00;100089.13;4995159;28;20037;-79
2022/12/18 07:09:03;;;;;;;49.97;16.17;;;;;;;-11.27;100.00;100070.16;4982731;28;20065;-79
2022/12/18 07:11:32;;;;;;;48.87;15.60;;;;;;;-11.15;100.00;100082.09;4999715;28;20026;-78
2022/12/18 07:13:59;;;;;;;46.87;15.90;;;;;;;-11.06;100.00;100098.38;4981065;28;20030;-80
2022/12/18 07:16:24;;;;;;;48.67;16.63;;;;;;;-10.97;100.00;100091.25;5003492;28;20034;-80
2022/12/18 07:18:50;;;;;;;42.87;16.37;;;;;;;-10.79;100.00;100084.69;5005265;28;20499;-79
2022/12/18 07:21:19;;;;;;;43.23;16.20;;;;;;;-10.70;100.00;100108.88;4992361;28;20010;-77
2022/12/18 07:23:47;;;;;;;41.43;15.07;;;;;;;-10.70;100.00;100098.41;5008481;28;20011;-79
2022/12/18 07:26:15;;;;;;;37.95;16.10;;;;;;;-10.69;100.00;100094.03;5001654;28;20026;-78
2022/12/18 07:28:41;;;;;;;48.97;19.27;;;;;;;-10.63;100.00;100086.91;5008950;28;20061;-78
2022/12/18 07:31:09;;;;;;;41.70;15.67;;;;;;;-10.54;100.00;100084.94;5004423;28;20018;-80
2022/12/18 07:33:35;;;;;;;48.35;15.40;;;;;;;-10.33;100.00;100107.94;5008180;28;20088;-78
2022/12/18 07:36:06;;;;;;;43.03;14.63;;;;;;;-10.23;100.00;100092.81;5011102;23;20046;-75
2022/12/18 07:38:32;;;;;;;45.47;16.53;;;;;;;-10.17;100.00;100084.78;4978825;28;20041;-75
2022/12/18 07:41:06;;;;;;;44.47;17.30;;;;;;;-9.84;100.00;100092.63;4991298;28;20488;-75
2022/12/18 07:43:31;;;;;;;51.03;15.77;;;;;;;-9.70;100.00;100103.53;4998426;28;20034;-75
2022/12/18 07:45:56;;;;;;;44.43;15.43;;;;;;;-9.45;100.00;100115.94;4995849;28;20086;-75
2022/12/18 07:48:22;;;;;;;50.80;16.33;;;;;;;-9.41;100.00;100118.41;4985295;28;20026;-75
2022/12/18 07:50:47;;;;;;;44.70;16.30;;;;;;;-9.39;100.00;100084.31;5011196;28;20045;-74
2022/12/18 07:53:14;;;;;;;45.00;16.03;;;;;;;-9.40;100.00;100066.88;4985514;28;20049;-77
2022/12/18 07:55:41;;;;;;;41.63;14.53;;;;;;;-9.33;100.00;100079.72;4980446;28;20476;-75
2022/12/18 07:58:06;;;;;;;41.33;15.03;;;;;;;-9.04;100.00;100104.19;4977646;28;20112;-75
2022/12/18 08:00:32;;;;;;;43.67;14.53;;;;;;;-9.01;100.00;100083.13;4977159;28;20051;-75
2022/12/18 08:02:57;;;;;;;44.20;15.50;;;;;;;-8.76;100.00;100108.56;4979469;28;20026;-76
2022/12/18 08:05:23;;;;;;;44.10;16.10;;;;;;;-8.66;100.00;100084.59;4978950;28;20023;-75
2022/12/18 08:07:48;;;;;;;44.43;15.27;;;;;;;-8.46;100.00;100096.19;4976325;28;20027;-74
2022/12/18 08:10:14;;;;;;;42.47;16.43;;;;;;;-8.38;100.00;100087.13;4981318;28;20030;-76
2022/12/18 08:12:39;;;;;;;42.28;15.15;;;;;;;-8.16;100.00;100102.13;4977312;28;20025;-75
2022/12/18 08:15:05;;;;;;;42.63;15.45;;;;;;;-7.95;100.00;100105.75;4972457;28;20015;-75
2022/12/18 08:17:30;;;;;;;52.20;16.20;;;;;;;-7.97;100.00;100086.56;4994562;28;20019;-75
2022/12/18 08:19:56;;;;;;;48.20;16.58;;;;;;;-7.88;100.00;100074.91;4985859;28;20026;-73
2022/12/18 08:22:21;;;;;;;46.50;15.07;;;;;;;-7.88;100.00;100059.97;4976475;28;20039;-75
2022/12/18 08:24:46;;;;;;;43.47;15.57;;;;;;;-7.56;100.00;100105.22;4990817;28;20045;-76
2022/12/18 08:27:12;;;;;;;38.28;13.48;;;;;;;-7.78;100.00;100056.09;4995710;28;20435;-74
2022/12/18 08:29:38;;;;;;;42.85;15.32;;;;;;;-7.30;100.00;100109.50;4978059;28;20033;-75
2022/12/18 08:32:03;;;;;;;39.15;15.10;;;;;;;-7.29;100.00;100075.25;4970320;28;20031;-74
2022/12/18 08:34:28;;;;;;;38.33;13.43;;;;;;;-7.03;100.00;100091.78;4982452;28;20025;-74
2022/12/18 08:36:58;;;;;;;41.88;14.10;;;;;;;-6.83;100.00;100093.63;4995295;28;20034;-76
2022/12/18 08:39:40;;;;;;;42.30;14.93;;;;;;;-6.91;100.00;100062.38;4990532;28;20045;-76
2022/12/18 08:44:49;;;;;;;40.72;14.90;;;;;;;-6.32;100.00;100102.06;5004934;28;20072;-71
2022/12/18 08:47:15;;;;;;;41.08;13.40;;;;;;;-6.30;100.00;100092.31;4996212;28;20065;-71
2022/12/18 08:49:40;;;;;;;33.88;12.95;;;;;;;-6.17;100.00;100097.00;5023701;28;20036;-70
2022/12/18 08:52:06;;;;;;;46.03;15.05;;;;;;;-6.16;100.00;100095.22;5005849;28;20429;-70
2022/12/18 08:54:31;;;;;;;37.17;14.18;;;;;;;-5.93;100.00;100091.53;5011555;28;20040;-71
2022/12/18 08:56:57;;;;;;;35.83;13.65;;;;;;;-5.63;100.00;100088.47;5000081;28;20022;-71
2022/12/18 08:59:23;;;;;;;48.38;15.90;;;;;;;-5.53;100.00;100101.19;5012474;28;20536;-71
2022/12/18 09:01:49;;;;;;;37.63;13.35;;;;;;;-5.45;100.00;100094.69;5015113;28;20041;-71
2022/12/18 09:04:14;;;;;;;40.10;15.00;;;;;;;-5.08;100.00;100089.41;4997388;28;20393;-71
2022/12/18 09:06:40;;;;;;;37.00;13.40;;;;;;;-4.98;100.00;100083.69;5006042;28;20110;-71
2022/12/18 09:09:06;;;;;;;32.83;14.15;;;;;;;-4.41;100.00;100069.41;5006137;28;20034;-71
2022/12/18 09:11:32;;;;;;;33.75;13.43;;;;;;;-3.48;100.00;100060.16;5002124;28;20032;-73
2022/12/18 09:14:00;;;;;;;34.92;13.32;;;;;;;-1.65;100.00;100061.03;5000890;28;20053;-72
2022/12/18 09:16:27;;;;;;;41.08;14.50;;;;;;;0.26;100.00;100049.34;5020363;28;20049;-73
2022/12/18 09:18:59;;;;;;;36.20;14.73;;;;;;;0.26;100.00;100051.16;5008293;28;20037;-71
2022/12/18 09:21:26;;;;;;;35.42;14.98;;;;;;;-0.19;100.00;100058.69;4989771;28;20030;-71
2022/12/18 09:23:53;;;;;;;36.38;14.50;;;;;;;-1.53;100.00;100063.84;5010544;28;20030;-74
2022/12/18 09:26:19;;;;;;;40.72;14.65;;;;;;;-1.67;100.00;100054.09;5007651;28;20037;-73
2022/12/18 09:28:44;;;;;;;39.47;13.75;;;;;;;-0.23;100.00;100050.94;5008639;28;20025;-72
2022/12/18 09:31:12;;;;;;;34.45;13.05;;;;;;;1.62;100.00;100051.91;5011101;28;20420;-72
2022/12/18 09:33:38;;;;;;;32.17;12.68;;;;;;;2.54;88.83;100049.31;4995801;28;20392;-72
2022/12/18 09:36:07;;;;;;;37.28;14.20;;;;;;;2.81;77.10;100044.44;4996867;28;20120;-73
2022/12/18 09:38:33;;;;;;;33.85;13.93;;;;;;;4.03;70.60;100032.56;4990799;28;20036;-72
2022/12/18 09:41:17;;;;;;;34.47;13.75;;;;;;;5.45;63.88;100016.44;4997230;28;20032;-72
2022/12/18 09:43:51;;;;;;;32.97;13.43;;;;;;;5.01;64.20;100020.47;5011994;28;20030;-63
2022/12/18 09:46:40;;;;;;;33.85;15.15;;;;;;;5.13;63.09;100026.53;4993681;28;20473;-63
2022/12/18 09:49:12;;;;;;;37.05;14.70;;;;;;;5.98;59.55;100035.78;4993034;28;20018;-64
2022/12/18 09:51:45;;;;;;;31.77;14.27;;;;;;;5.31;60.77;100035.59;4993604;28;20112;-64
2022/12/18 09:54:30;;;;;;;32.00;14.98;;;;;;;5.27;59.28;100026.16;4993707;28;20026;-64
2022/12/18 09:56:55;;;;;;;32.90;14.30;;;;;;;7.43;56.13;100013.59;5003424;28;20545;-63
2022/12/18 09:59:35;;;;;;;30.20;14.05;;;;;;;6.69;53.37;100017.31;4996545;28;20124;-64
2022/12/18 10:02:14;;;;;;;30.88;14.30;;;;;;;7.12;53.85;100020.34;5005653;28;20029;-63
2022/12/18 10:04:39;;;;;;;34.47;16.20;;;;;;;5.99;53.84;100029.41;4992815;28;20018;-64
2022/12/18 10:07:26;;;;;;;28.52;14.23;;;;;;;6.62;54.25;100020.75;4990478;28;20084;-64
2022/12/18 10:10:08;;;;;;;33.03;15.45;;;;;;;6.30;54.27;100030.91;4986169;28;20065;-64
2022/12/18 10:12:51;;;;;;;36.33;16.33;;;;;;;6.56;55.09;100025.72;4990776;28;20026;-65
2022/12/18 10:15:30;;;;;;;29.77;14.73;;;;;;;6.17;54.40;100016.09;4996930;28;20029;-65
2022/12/18 10:18:06;;;;;;;30.83;14.45;;;;;;;5.68;55.46;100026.88;5002602;28;20026;-65
2022/12/18 10:20:38;;;;;;;31.17;14.38;;;;;;;4.15;60.75;100023.50;4981940;28;20033;-63
2022/12/18 10:23:18;;;;;;;34.60;14.98;;;;;;;4.98;59.42;100032.31;4990161;28;20363;-63
2022/12/18 10:26:01;;;;;;;34.30;14.20;;;;;;;5.41;56.76;100039.16;4993051;28;20034;-63
2022/12/18 10:28:30;;;;;;;32.80;14.55;;;;;;;5.55;56.62;100045.94;5014197;28;20037;-63
2022/12/18 10:30:55;;;;;;;27.23;12.80;;;;;;;6.86;54.88;100039.88;5001207;28;20477;-63
2022/12/18 10:33:29;;;;;;;32.60;14.45;;;;;;;6.43;54.80;100040.50;5007398;28;20050;-64
2022/12/18 10:35:55;;;;;;;32.75;15.07;;;;;;;5.63;56.56;100037.19;4990715;28;20049;-65
2022/12/18 10:38:30;;;;;;;31.15;13.85;;;;;;;5.33;56.96;100030.94;5014334;28;20108;-65
2022/12/18 10:40:56;;;;;;;29.55;13.95;;;;;;;6.62;55.59;100035.03;5001489;28;20061;-66
2022/12/18 10:43:35;;;;;;;32.22;13.93;;;;;;;6.76;54.22;100031.88;4998152;28;20120;-66
2022/12/18 10:46:01;;;;;;;28.95;13.73;;;;;;;7.36;53.35;100036.78;4995296;28;20038;-60
2022/12/18 10:48:27;;;;;;;32.42;15.15;;;;;;;6.69;54.09;100046.06;4993894;28;20057;-52
2022/12/18 10:50:53;;;;;;;32.75;15.13;;;;;;;6.12;55.06;100043.41;4991718;28;20025;-65
2022/12/18 10:53:25;;;;;;;30.77;13.93;;;;;;;5.70;56.18;100047.22;4996232;28;20017;-69
2022/12/18 10:55:54;;;;;;;35.58;15.00;;;;;;;5.52;56.91;100042.69;4983901;28;20045;-69
2022/12/18 10:58:24;;;;;;;32.72;14.35;;;;;;;6.10;56.12;100038.19;4990925;28;20061;-70
2022/12/18 11:01:06;;;;;;;38.60;15.65;;;;;;;6.30;55.72;100024.69;4984143;28;20025;-70
2022/12/18 11:04:00;;;;;;;31.48;14.23;;;;;;;5.03;57.05;100038.09;5001349;28;20463;-69
2022/12/18 11:06:25;;;;;;;35.38;15.50;;;;;;;6.23;56.79;100026.25;4987308;28;20397;-69
2022/12/18 11:09:18;;;;;;;32.78;13.73;;;;;;;5.65;57.40;100024.47;4994542;28;20045;-68
2022/12/18 11:11:49;;;;;;;34.13;13.93;;;;;;;5.67;57.54;100033.22;4980747;28;20022;-69